Raw Observation Data from the Anniston Airport

SAUS70 KWBC 172300 RRB
METAR KANB 172253Z 35008KT 10SM CLR 08/M06 A3037 RMK AO2 SLP291
     T00831061
SAUS70 KWBC 172200
METAR KANB 172153Z VRB06G15KT 10SM CLR 10/M05 A3035 RMK AO2 SLP282
     T01001050
SAUS70 KWBC 172100
METAR KANB 172053Z 36010KT 310V020 10SM CLR 10/M05 A3034 RMK AO2 SLP278
     T01001050 55005
SAUS70 KWBC 172000
METAR KANB 171953Z 02012G18KT 10SM CLR 09/M05 A3033 RMK AO2 SLP275
     T00941050
SAUS70 KWBC 171900
METAR KANB 171853Z 01012G16KT 10SM CLR 09/M03 A3033 RMK AO2 SLP277
     T00891033
SAUS70 KWBC 171800
METAR KANB 171753Z 02010G15KT 10SM CLR 08/M03 A3035 RMK AO2 SLP284
     T00831028 10083 20028 50002
SAUS70 KWBC 171700
METAR KANB 171653Z 01008KT 10SM CLR 07/M03 A3037 RMK AO2 SLP289
     T00671033
SAUS70 KWBC 171600
METAR KANB 171553Z 01007KT 10SM CLR 06/M02 A3036 RMK AO2 SLP285
     T00561022
SAUS70 KWBC 171500
METAR KANB 171453Z 31007KT 9SM FEW021 04/M02 A3035 RMK AO2 SLP282
     T00391017 53031
SPUS70 KWBC 171438
SPECI KANB 171436Z 31006KT 9SM BKN021 03/M02 A3035 RMK AO2
SAUS70 KWBC 171400
METAR KANB 171353Z 34008KT 260V030 9SM CLR 03/M02 A3032 RMK AO2 SLP272
     T00281017
SPUS70 KWBC 171322
SPECI KANB 171320Z VRB06KT 9SM SCT020 03/M01 A3029 RMK AO2
SPUS70 KWBC 171321
SPECI KANB 171320Z VRB06KT 9SM SCT020 03/M01 A3029 RMK AO2
SAUS70 KWBC 171300
METAR KANB 171253Z 02005KT 8SM BKN022 04/00 A3028 RMK AO2 SLP258
     T00390000
SAUS70 KWBC 171200
METAR KANB 171153Z 35010G18KT 310V020 10SM SCT021 04/00 A3025 RMK AO2
     SLP250 60000 70083 T00390000 10083 20039 51037
SAUS70 KWBC 171100
METAR KANB 171053Z 34008KT 10SM OVC023 05/01 A3022 RMK AO2 PRESRR SLP239
     T00500011
SAUS70 KWBC 171000
METAR KANB 170953Z 36011KT 320V030 10SM OVC024 06/02 A3018 RMK AO2
     SLP218 T00560017
SPUS70 KWBC 170920
SPECI KANB 170919Z 35007KT 10SM BKN026 06/02 A3016 RMK AO2
SAUS70 KWBC 170900
METAR KANB 170853Z 03007G15KT 10SM CLR 05/02 A3014 RMK AO2 SLP207 60000
     T00500017 51024
SPUS70 KWBC 170831
SPECI KANB 170829Z 02007KT 360V070 10SM SCT024 06/02 A3014 RMK AO2
SAUS70 KWBC 170800
METAR KANB 170753Z 34009G16KT 10SM BKN020 OVC055 06/02 A3014 RMK AO2
     SLP205 T00560022
SPUS70 KWBC 170730
SPECI KANB 170728Z 35008KT 310V030 10SM SCT020 BKN055 06/03 A3012 RMK
     AO2
SAUS70 KWBC 170700
METAR KANB 170653Z 01008G15KT 320V030 10SM SCT016 OVC020 07/03 A3010 RMK
     AO2 RAE0555 SLP191 P0000 T00670033
SPUS70 KWBC 170634
SPECI KANB 170632Z 31008KT 250V340 10SM OVC014 07/05 A3009 RMK AO2
     RAE0555 P0000
SAUS70 KWBC 170600 RRA
METAR KANB 170553Z 31008KT 220V360 6SM -RA BR BKN015 OVC023 08/06 A3007
     RMK AO2 SLP182 P0002 60043 T00830061 10133 20083 402610083
     53062
SPUS70 KWBC 170502
SPECI KANB 170500Z 32014G21KT 280V340 3SM -RA BR BKN015 OVC020 10/08
     A3002 RMK AO2 P0001
SPUS70 KWBC 170502
SPECI KANB 170500Z 32014G21KT 280V340 3SM -RA BR BKN015 OVC020 10/08
     A3002 RMK AO2 P0001
SAUS70 KWBC 170500 RRA
METAR KANB 170453Z 31015G23KT 2 1/2SM -RA BR FEW009 BKN015 OVC023 10/08
     A3002 RMK AO2 TSE50RAB24 SLP163 P0001 T01000083
SPUS70 KWBC 170443
SPECI KANB 170441Z 29016G22KT 2 1/2SM -TSRA BR FEW010 BKN015 OVC021
     11/09 A3000 RMK AO2 RAB24 P0001
SAUS70 KWBC 170400
METAR KANB 170353Z 28008KT 4SM TS BR OVC011 12/11 A2995 RMK AO2 RAE0257
     SLP138 P0000 T01170111
SPUS70 KWBC 170346
SPECI KANB 170345Z 28009KT 4SM TS BR OVC011 12/11 A2994 RMK AO2 RAE0257
     P0000
SPUS70 KWBC 170308
SPECI KANB 170306Z 31008G14KT 280V340 10SM TS BKN008 OVC020 13/12 A2991
     RMK AO2 RAE0257 P0000
SAUS70 KWBC 170300 RRA
METAR KANB 170253Z 36008KT 8SM -TSRA FEW010 BKN020 OVC065 13/12 A2989
     RMK AO2 SLP119 P0016 60040 T01280122 55016
SAUS70 KWBC 170200
METAR KANB 170153Z VRB05KT 6SM -TSRA BR BKN038 OVC055 12/12 A2984 RMK
     AO2 PRESFR SLP103 P0015 T01220117
SAUS70 KWBC 170100
METAR KANB 170053Z 06005KT 6SM -TSRA BR FEW042 BKN049 OVC100 12/11 A2991
     RMK AO2 TSB51 PRESFR SLP128 P0009 T01170111
SAUS70 KWBC 170000 RRA
METAR KANB 162353Z 05005KT 9SM -RA FEW014 BKN060 OVC095 12/10 A2994 RMK
     AO2 WSHFT 2241 TSE10 SLP135 P0008 60040 T01220100 10261 20122
     53038
SPUS70 KWBC 162317
SPECI KANB 162310Z VRB05G14KT 6SM -RA FEW015 BKN050 OVC075 13/11 A2995
     RMK AO2 WSHFT 2241 TSE10 P0002
SPUS70 KWBC 162309
SPECI KANB 162301Z VRB05G21KT 7SM -TSRA SCT015 BKN020 OVC070 14/11 A2996
     RMK AO2 WSHFT 2241 P0001
SAUS70 KWBC 162300 RRA
METAR KANB 162253Z 30013G26KT 10SM -TSRA SCT015 BKN020 OVC070 14/12
     A2997 RMK AO2 PK WND 27052/2203 WSHFT 2149 TSB13RAB04 SLP146
     P0032 T01390117
SPUS70 KWBC 162241
SPECI KANB 162222Z 25025G42KT 2SM TSRA BR BKN019 BKN028 OVC065 16/15
     A2990 RMK AO2 PK WND 27052/2203 WSHFT 2149 TSB13RAB04
     P0029
SPUS70 KWBC 162236
SPECI KANB 162217Z 23029G42KT 3/4SM TSRA BR BKN021 BKN030 OVC070 16/16
     A2988 RMK AO2 PK WND 27052/2203 WSHFT 2149 TSB13RAB04
     P0028
SPUS70 KWBC 162218
SPECI KANB 162207Z 24037G52KT 1/2SM +RA FG FEW010 BKN050 OVC075 17/15
     A2986 RMK AO2 PK WND 27052/2203 WSHFT 2149 RAB04 PRESRR
     P0019
SPUS70 KWBC 162212
SPECI KANB 162204Z 26041G52KT 1 1/4SM -RA FEW018 BKN060 OVC075 21/15
     A2987 RMK AO2 PK WND 27052/2203 WSHFT 2149 RAB04 PRESRR
     P0009
SAUS70 KWBC 162200
METAR KANB 162153Z 18019G26KT 10SM SCT060 BKN070 BKN085 25/14 A2975 RMK
     AO2 PK WND 16026/2146 SLP066 T02500144
SAUS70 KWBC 162100
METAR KANB 162053Z 20016G24KT 10SM SCT060 26/14 A2982 RMK AO2 SLP092
     T02560144 56039
SAUS70 KWBC 162000
METAR KANB 161953Z 21013G19KT 10SM FEW048 BKN060 OVC090 26/15 A2987 RMK
     AO2 PK WND 23027/1930 SLP106 T02610150
SAUS70 KWBC 161900
METAR KANB 161853Z 21014G23KT 10SM SCT039 BKN047 BKN065 25/15 A2988 RMK
     AO2 SLP110 T02500150
SAUS70 KWBC 161800 RRA
METAR KANB 161753Z 22010G22KT 10SM SCT030 BKN044 23/17 A2994 RMK AO2
     SLP132 60000 T02330167 10233 20189 58027
SAUS70 KWBC 161700 RRE
METAR KANB 161653Z 21009KT 10SM OVC039 21/17 A3001 RMK AO2 SLP156
     T02110172
SPUS70 KWBC 161619
SPECI KANB 161605Z 21010KT 10SM SCT027 OVC035 21/17 A3002 RMK AO2
SAUS70 KWBC 161600
METAR KANB 161553Z 20009KT 10SM FEW016 BKN027 OVC033 21/17 A3002 RMK AO2
     RAB04E32 SLP161 P0000 T02060172
SAUS70 KWBC 161500
METAR KANB 161453Z 20006KT 10SM SCT018 BKN028 OVC044 21/17 A3002 RMK AO2
     SLP161 60000 T02060172 53013
SAUS70 KWBC 161400
METAR KANB 161353Z 21004KT 10SM OVC034 19/17 A3001 RMK AO2 RAB05E14
     SLP158 P0000 T01940172
SPUS70 KWBC 161334
SPECI KANB 161328Z 19003KT 10SM SCT019 OVC036 19/17 A3000 RMK AO2
     RAB05E14 P0000
SAUS70 KWBC 161300
METAR KANB 161253Z 22003KT 10SM BKN019 OVC027 19/17 A2999 RMK AO2 SLP152
     T01890167
SPUS70 KWBC 161249
SPECI KANB 161236Z 23004KT 10SM SCT019 BKN029 OVC040 19/17 A2999 RMK
     AO2
SAUS70 KWBC 161200 RRA
METAR KANB 161153Z 22004KT 10SM FEW019 OVC044 19/17 A2998 RMK AO2 SLP148
     T01940172 10206 20183 56005
SAUS70 KWBC 161100
METAR KANB 161053Z 20003KT 9SM SCT024 OVC045 19/17 A2999 RMK AO2 SLP148
     T01940172
SPUS70 KWBC 161020
SPECI KANB 161013Z 22004KT 10SM BKN022 BKN029 OVC037 19/17 A2999 RMK
     AO2
SAUS70 KWBC 161000
METAR KANB 160953Z 22004KT 10SM SCT022 OVC039 19/17 A3000 RMK AO2 SLP151
     T01940172
SAUS70 KWBC 160900 RRA
METAR KANB 160853Z 25005KT 10SM BKN023 OVC032 19/17 A3000 RMK AO2 SLP153
     T01890172 58003
SAUS70 KWBC 160800 RRA
METAR KANB 160753Z 25005KT 10SM OVC020 19/17 A3001 RMK AO2 SLP155
     T01890172
SAUS70 KWBC 160700
METAR KANB 160653Z 23006KT 10SM OVC017 19/17 A3001 RMK AO2 SLP155
     T01940172
SAUS70 KWBC 160600 RRA
METAR KANB 160553Z 25005KT 10SM BKN017 19/17 A3001 RMK AO2 SLP157
     T01890172 10211 20189 402330161 50000
SAUS70 KWBC 160500
METAR KANB 160453Z 24004KT 10SM CLR 19/17 A3001 RMK AO2 SLP157
     T01940172
SAUS70 KWBC 160400
METAR KANB 160353Z 23008KT 10SM BKN050 19/17 A3002 RMK AO2 SLP160
     T01940167
SAUS70 KWBC 160300 RRA
METAR KANB 160253Z 27003KT 10SM CLR 19/17 A3001 RMK AO2 SLP158 T01940167
     53008
SAUS70 KWBC 160200
METAR KANB 160153Z 25004KT 10SM CLR 20/17 A3000 RMK AO2 SLP154
     T02000167
SAUS70 KWBC 160100
METAR KANB 160053Z 21006KT 10SM CLR 20/17 A2999 RMK AO2 SLP151
     T02000167
SAUS70 KWBC 160000 RRA
METAR KANB 152353Z 20003KT 10SM CLR 21/16 A2998 RMK AO2 SLP150 T02110161
     10233 20211 55001

USA.gov is the U.S. government's official web portal to all federal, state and local government web resources and services.